Time;durP1;ratioP1;P1;durP2;ratioP2;P2;SDS_P1;SDS_P2;PMS_P1;PMS_P2;Temp;Humidity;BMP_temperature;BMP_pressure;BME280_temperature;BME280_humidity;BME280_pressure;Samples;Min_cycle;Max_cycle;Signal;HPM_P1;HPM_P2
2022/11/01 00:01:57;;;;;;;25.30;22.67;;;11.10;99.90;;;11.17;93.68;97946.94;5060525;28;20976;-81
2022/11/01 00:04:24;;;;;;;30.33;24.77;;;11.10;99.90;;;11.00;94.39;97941.22;5069446;28;20555;-78
2022/11/01 00:06:52;;;;;;;26.17;23.37;;;11.10;99.90;;;10.99;95.15;97943.09;5071060;28;21002;-77
2022/11/01 00:09:19;;;;;;;27.90;22.40;;;11.10;99.90;;;11.15;93.98;97938.22;5075222;28;20473;-76
2022/11/01 00:11:48;;;;;;;24.73;22.10;;;11.10;99.90;;;11.10;93.47;97940.72;5072296;28;20441;-76
2022/11/01 00:14:19;;;;;;;32.47;22.00;;;11.10;99.90;;;10.91;93.04;97921.75;5065860;28;20451;-77
2022/11/01 00:16:47;;;;;;;32.57;22.47;;;11.00;99.90;;;10.90;93.51;97920.09;5081812;28;20461;-77
2022/11/01 00:19:14;;;;;;;29.50;23.17;;;10.90;99.90;;;10.92;94.10;97923.41;5074793;28;20456;-76
2022/11/01 00:21:42;;;;;;;29.40;22.77;;;10.90;99.90;;;10.80;95.31;97908.94;5076006;28;20478;-80
2022/11/01 00:24:09;;;;;;;31.33;23.37;;;10.90;99.90;;;10.89;94.03;97923.84;5068240;28;20878;-75
2022/11/01 00:26:36;;;;;;;28.23;23.57;;;10.90;99.90;;;10.42;94.89;97857.47;5087923;28;20464;-76
2022/11/01 00:29:05;;;;;;;29.17;22.73;;;10.80;99.90;;;10.93;94.42;97925.06;5055123;28;20464;-77
2022/11/01 00:31:32;;;;;;;29.30;22.20;;;10.80;99.90;;;10.70;94.39;97907.56;5069001;28;20474;-76
2022/11/01 00:34:02;;;;;;;27.50;22.70;;;10.80;99.90;;;10.77;94.73;97932.66;5084434;28;20490;-77
2022/11/01 00:36:29;;;;;;;34.30;22.97;;;10.80;99.90;;;10.88;94.09;97944.63;5061486;28;20562;-75
2022/11/01 00:38:56;;;;;;;30.00;24.57;;;10.80;99.90;;;10.81;93.38;97948.44;5068921;28;20471;-75
2022/11/01 00:41:24;;;;;;;26.73;23.83;;;10.70;99.90;;;10.82;93.12;97947.38;5075243;28;20457;-77
2022/11/01 00:43:52;;;;;;;31.87;26.13;;;10.60;99.90;;;10.75;93.85;97950.97;5067466;28;20466;-78
2022/11/01 00:46:20;;;;;;;31.80;24.53;;;10.60;99.90;;;10.66;93.29;97952.25;5070886;28;20517;-79
2022/11/01 00:48:47;;;;;;;27.57;21.13;;;10.60;99.90;;;10.56;93.62;97936.53;5070781;28;20460;-75
2022/11/01 00:51:18;;;;;;;28.10;22.27;;;10.50;99.90;;;10.75;93.43;97952.84;5075955;28;20956;-76
2022/11/01 00:53:45;;;;;;;26.20;21.67;;;10.50;99.90;;;10.71;93.08;97948.91;5066243;28;20461;-75
2022/11/01 00:56:12;;;;;;;26.67;20.30;;;10.50;99.90;;;10.34;92.68;97896.34;5077922;28;20461;-78
2022/11/01 00:58:40;;;;;;;22.67;19.10;;;10.50;99.90;;;10.63;92.83;97950.84;5065950;28;20474;-76
2022/11/01 01:01:07;;;;;;;24.63;19.30;;;10.40;99.90;;;10.60;93.19;97935.06;5059978;28;20474;-77
2022/11/01 01:03:36;;;;;;;24.33;20.37;;;10.40;99.90;;;10.68;92.87;97947.47;5065374;28;20451;-77
2022/11/01 01:06:03;;;;;;;24.80;19.87;;;10.50;99.90;;;10.60;93.32;97958.56;5063227;28;20547;-77
2022/11/01 01:08:31;;;;;;;22.20;18.00;;;10.40;99.90;;;10.64;93.33;97948.97;5066978;28;20457;-77
2022/11/01 01:10:58;;;;;;;24.20;20.03;;;10.40;99.90;;;10.62;93.05;97945.66;5060171;28;20484;-77
2022/11/01 01:13:25;;;;;;;25.23;19.53;;;10.40;99.90;;;10.73;92.92;97950.38;5069142;28;20459;-79
2022/11/01 01:15:53;;;;;;;23.43;20.70;;;10.50;99.90;;;10.68;92.85;97955.56;5075956;28;21006;-76
2022/11/01 01:18:20;;;;;;;23.83;19.93;;;10.50;99.90;;;10.49;93.95;97944.69;5068912;28;20452;-78
2022/11/01 01:20:48;;;;;;;22.50;20.13;;;10.30;99.90;;;10.52;93.64;97950.69;5070888;28;20471;-77
2022/11/01 01:23:16;;;;;;;23.20;20.27;;;10.30;99.90;;;10.65;93.16;97957.91;5063995;28;20453;-77
2022/11/01 01:25:43;;;;;;;30.17;22.17;;;10.40;99.90;;;10.48;93.89;97953.81;5068673;28;21019;-78
2022/11/01 01:28:10;;;;;;;25.43;20.67;;;10.30;99.90;;;10.51;94.35;97965.25;5077313;28;20994;-78
2022/11/01 01:30:40;;;;;;;28.03;21.60;;;10.30;99.90;;;10.42;94.99;97945.75;5068929;28;20495;-81
2022/11/01 01:33:08;;;;;;;26.47;21.47;;;10.20;99.90;;;10.53;94.67;97950.47;5071681;28;20460;-80
2022/11/01 01:35:35;;;;;;;30.10;21.97;;;10.30;99.90;;;10.55;94.56;97967.31;5070645;28;20489;-76
2022/11/01 01:38:04;;;;;;;27.63;21.23;;;10.20;99.90;;;10.43;95.16;97953.66;5076368;28;21253;-78
2022/11/01 01:40:32;;;;;;;26.50;22.40;;;10.20;99.90;;;10.52;95.33;97966.91;5071109;28;20517;-78
2022/11/01 01:42:59;;;;;;;27.17;20.87;;;10.30;99.90;;;10.60;94.76;97969.34;5069243;28;20467;-79
2022/11/01 01:45:35;;;;;;;25.60;21.90;;;10.30;99.90;;;10.48;95.13;97934.91;5068175;28;20452;-78
2022/11/01 01:48:15;;;;;;;25.27;21.03;;;10.40;99.90;;;10.65;94.45;97950.63;5080991;28;20457;-78
2022/11/01 01:50:49;;;;;;;31.67;22.50;;;10.50;99.90;;;10.62;94.90;97951.91;5068219;28;20464;-80
2022/11/01 01:53:24;;;;;;;28.30;21.83;;;10.50;99.90;;;10.66;95.16;97957.66;5064141;28;20475;-78
2022/11/01 01:55:57;;;;;;;26.53;21.50;;;10.50;99.90;;;10.68;94.87;97955.56;5069299;28;20483;-80
2022/11/01 01:58:29;;;;;;;29.87;22.47;;;10.60;99.90;;;10.68;94.61;97958.28;5068081;28;20455;-78
2022/11/01 02:00:57;;;;;;;22.83;19.13;;;10.60;99.90;;;10.68;94.76;97943.97;5068902;28;20447;-79
2022/11/01 02:03:30;;;;;;;24.80;21.87;;;10.60;99.90;;;10.30;95.84;97913.19;5067076;28;20463;-78
2022/11/01 02:06:03;;;;;;;28.33;22.40;;;10.50;99.90;;;10.51;96.21;97930.13;5061304;28;21196;-78
2022/11/01 02:08:33;;;;;;;26.03;20.77;;;10.50;99.90;;;10.58;94.80;97944.44;5060157;28;21003;-78
2022/11/01 02:11:03;;;;;;;28.80;22.93;;;10.50;99.90;;;10.68;95.24;97933.97;5063878;28;21054;-76
2022/11/01 02:13:31;;;;;;;27.73;22.20;;;10.50;99.90;;;10.73;94.15;97936.84;5058705;28;20466;-77
2022/11/01 02:16:50;;;;;;;29.83;21.13;;;10.60;99.90;;;10.77;93.85;97938.06;5062121;28;20460;-77
2022/11/01 02:19:46;;;;;;;24.33;21.00;;;10.60;99.90;;;10.82;93.13;97923.06;5060450;28;20457;-77
2022/11/01 02:22:23;;;;;;;26.00;21.20;;;10.60;99.90;;;10.79;93.24;97923.50;5062566;28;20498;-77
2022/11/01 02:25:30;;;;;;;25.20;20.80;;;10.70;99.90;;;10.74;94.02;97934.97;5063735;28;20457;-77
2022/11/01 02:28:29;;;;;;;24.73;19.10;;;10.70;99.90;;;10.71;94.35;97928.16;5067379;28;20470;-76
2022/11/01 02:31:11;;;;;;;24.53;20.67;;;10.70;99.90;;;10.61;94.17;97923.22;5064716;28;20480;-79
2022/11/01 02:33:45;;;;;;;28.10;20.70;;;10.70;99.90;;;10.61;94.97;97928.63;5081876;28;20456;-78
2022/11/01 02:36:18;;;;;;;28.10;21.70;;;10.70;99.90;;;9.96;94.10;97828.88;5071712;28;20455;-77
2022/11/01 02:38:50;;;;;;;28.97;21.50;;;10.60;99.90;;;10.69;94.36;97934.81;5070064;28;20959;-76
2022/11/01 02:41:23;;;;;;;27.43;22.30;;;10.60;99.90;;;10.73;94.68;97944.97;5061469;28;20448;-74
2022/11/01 02:43:55;;;;;;;26.03;22.17;;;10.60;99.90;;;10.68;94.64;97933.97;5062822;28;21762;-78
2022/11/01 02:49:14;;;;;;;29.83;24.33;;;10.70;99.90;;;10.76;94.37;97954.47;5061598;28;20508;-79
2022/11/01 02:51:43;;;;;;;34.77;22.03;;;10.70;99.90;;;10.60;94.49;97953.16;5063200;28;20533;-78
2022/11/01 02:54:31;;;;;;;26.20;21.90;;;10.70;99.90;;;10.79;93.85;97954.06;5054662;28;20465;-78
2022/11/01 02:57:04;;;;;;;23.67;21.20;;;10.70;99.90;;;10.59;94.20;97937.97;5062985;28;21153;-79
2022/11/01 02:59:43;;;;;;;25.10;21.90;;;10.70;99.90;;;10.74;94.29;97949.31;5062391;28;20447;-77
2022/11/01 03:02:19;;;;;;;24.90;22.23;;;10.70;99.90;;;10.62;93.86;97940.25;5059399;28;20543;-78
2022/11/01 03:04:48;;;;;;;32.73;22.07;;;10.70;99.90;;;10.72;93.50;97954.13;5064117;28;20867;-79
2022/11/01 03:07:17;;;;;;;23.40;20.70;;;10.60;99.90;;;10.55;93.35;97932.19;5061239;28;20516;-76
2022/11/01 03:09:44;;;;;;;24.13;20.17;;;10.60;99.90;;;10.61;94.02;97944.84;5063450;28;20799;-75
2022/11/01 03:12:20;;;;;;;24.40;20.97;;;10.50;99.90;;;10.61;94.04;97950.25;5063774;28;20500;-77
2022/11/01 03:14:55;;;;;;;24.40;20.80;;;10.50;99.90;;;10.53;93.72;97955.03;5060252;28;20457;-78
2022/11/01 03:17:34;;;;;;;27.60;22.30;;;10.50;99.90;;;10.55;93.99;97945.69;5058754;28;20466;-78
2022/11/01 03:20:09;;;;;;;22.97;20.50;;;10.50;99.90;;;10.56;93.13;97946.53;5064348;28;20458;-77
2022/11/01 03:22:42;;;;;;;24.63;21.30;;;10.50;99.90;;;10.63;93.12;97956.25;5067151;28;21072;-77
2022/11/01 03:28:07;;;;;;;31.20;21.60;;;10.50;99.90;;;10.62;93.52;97960.00;5058775;28;20867;-82
2022/11/01 03:30:35;;;;;;;27.30;22.67;;;10.50;99.90;;;10.58;94.21;97961.47;5065793;28;20482;-80
2022/11/01 03:33:03;;;;;;;28.93;21.10;;;10.50;99.90;;;10.46;94.13;97938.88;5068352;28;21198;-77
2022/11/01 03:35:37;;;;;;;27.33;21.63;;;10.50;99.90;;;10.43;94.42;97948.25;5061743;28;20458;-82
2022/11/01 03:38:10;;;;;;;27.10;22.40;;;10.50;99.90;;;10.37;94.13;97935.56;5059824;28;20467;-78
2022/11/01 03:40:42;;;;;;;26.60;20.63;;;10.50;99.90;;;10.50;94.73;97953.63;5065064;28;20446;-76
2022/11/01 03:43:13;;;;;;;27.50;21.30;;;10.50;99.90;;;10.56;94.31;97951.94;5063272;28;20548;-80
2022/11/01 03:45:42;;;;;;;31.60;22.73;;;10.50;99.90;;;10.42;95.41;97952.00;5065448;28;20465;-78
2022/11/01 03:48:09;;;;;;;25.33;22.57;;;10.50;99.90;;;10.38;94.60;97931.81;5043475;28;20451;-81
2022/11/01 03:50:39;;;;;;;25.50;22.40;;;10.50;99.90;;;10.27;93.45;97892.84;5072307;28;20475;-78
2022/11/01 03:53:06;;;;;;;32.97;23.70;;;10.50;99.90;;;10.65;93.97;97966.81;5063937;28;20586;-76
2022/11/01 03:55:33;;;;;;;28.73;22.10;;;10.50;99.90;;;10.56;94.02;97960.03;5070066;28;20465;-79
2022/11/01 03:58:01;;;;;;;26.13;21.43;;;10.50;99.90;;;10.55;94.09;97964.59;5066361;28;20463;-76
2022/11/01 04:00:30;;;;;;;26.07;22.47;;;10.50;99.90;;;10.61;94.57;97968.31;5064022;28;20466;-80
2022/11/01 04:02:59;;;;;;;28.50;22.90;;;10.50;99.90;;;10.63;94.26;97969.75;5078627;28;20487;-79
2022/11/01 04:05:29;;;;;;;26.67;23.40;;;10.50;99.90;;;10.61;93.75;97971.00;5052668;28;20503;-78
2022/11/01 04:07:57;;;;;;;27.70;22.40;;;10.50;99.90;;;10.61;94.18;97976.41;5067589;28;20495;-76
2022/11/01 04:10:27;;;;;;;29.10;23.60;;;10.60;99.90;;;10.67;94.47;97974.72;5065618;28;20862;-77
2022/11/01 04:12:55;;;;;;;30.80;24.07;;;10.50;99.90;;;10.66;94.33;97973.88;5064474;28;20464;-77
2022/11/01 04:21:04;;;;;;;32.37;24.70;;;10.50;99.90;;;10.32;94.47;97938.09;5063258;28;20445;-83
2022/11/01 04:23:33;;;;;;;32.50;23.77;;;10.50;99.90;;;10.57;94.86;97976.00;5062982;28;20443;-77
2022/11/01 04:26:00;;;;;;;27.93;23.50;;;10.60;99.90;;;10.65;95.90;97991.13;5059127;28;20546;-78
2022/11/01 04:28:28;;;;;;;33.83;25.40;;;10.60;99.90;;;10.74;95.63;97999.81;5064268;28;20813;-78
2022/11/01 04:30:55;;;;;;;27.17;23.40;;;10.70;99.90;;;10.67;95.39;97991.75;5073630;28;20488;-79
2022/11/01 04:33:23;;;;;;;38.40;24.57;;;10.70;99.90;;;10.75;94.98;97993.38;5065711;28;20453;-79
2022/11/01 04:35:50;;;;;;;30.07;23.83;;;10.70;99.90;;;10.73;94.64;97993.59;5069003;28;21107;-77
2022/11/01 04:38:17;;;;;;;26.77;22.40;;;10.70;99.90;;;10.73;94.71;97990.91;5067935;28;20935;-80
2022/11/01 04:40:46;;;;;;;35.20;26.23;;;10.70;99.90;;;10.31;94.71;97931.88;5072600;28;20461;-81
2022/11/01 04:43:14;;;;;;;29.20;23.27;;;10.60;99.90;;;10.71;94.86;97984.88;5067034;28;20447;-78
2022/11/01 04:45:41;;;;;;;28.77;22.73;;;10.70;99.90;;;10.82;94.32;97998.72;5071834;28;20458;-78
2022/11/01 04:48:12;;;;;;;24.50;21.90;;;10.70;99.90;;;10.71;93.93;98006.50;5088192;28;20466;-78
2022/11/01 04:50:44;;;;;;;29.83;21.90;;;10.70;99.90;;;10.70;93.95;97988.63;5070797;28;20473;-79
2022/11/01 04:53:12;;;;;;;24.43;21.83;;;10.70;99.90;;;10.72;94.01;98000.06;5084925;28;20459;-79
2022/11/01 04:55:40;;;;;;;31.33;21.80;;;10.70;99.90;;;10.73;93.98;98012.50;5073756;28;20472;-79
2022/11/01 04:58:10;;;;;;;27.87;21.70;;;10.60;99.90;;;10.83;93.85;98000.38;5062812;28;20455;-81
2022/11/01 05:00:38;;;;;;;26.07;22.87;;;10.70;99.90;;;10.83;93.49;98008.50;5069760;28;20579;-77
2022/11/01 05:03:07;;;;;;;24.33;21.73;;;10.70;99.90;;;10.98;92.48;98003.59;5068225;28;20523;-77
2022/11/01 05:05:35;;;;;;;28.33;21.27;;;10.80;99.90;;;10.98;92.43;98011.72;5075344;28;20458;-76
2022/11/01 05:08:05;;;;;;;25.23;20.77;;;10.90;99.90;;;11.03;92.62;98022.72;5073796;28;20442;-80
2022/11/01 05:10:32;;;;;;;25.77;22.03;;;10.80;99.90;;;11.00;92.82;98028.56;5072260;28;20541;-81
2022/11/01 05:13:00;;;;;;;31.50;22.53;;;10.80;99.90;;;11.10;93.44;98021.84;5057547;28;20814;-76
2022/11/01 05:15:28;;;;;;;27.80;21.77;;;10.90;99.90;;;11.11;92.39;98018.09;5070822;28;20468;-76
2022/11/01 05:17:56;;;;;;;26.53;21.00;;;11.00;99.90;;;11.10;92.27;98032.66;5063443;28;20465;-78
2022/11/01 05:20:24;;;;;;;22.03;19.73;;;11.00;99.90;;;11.13;92.07;98021.41;5065889;28;21049;-77
2022/11/01 05:22:51;;;;;;;26.40;21.03;;;11.00;99.90;;;11.11;92.59;98026.19;5055939;28;20462;-78
2022/11/01 05:25:19;;;;;;;25.93;21.63;;;11.00;99.90;;;11.07;92.76;98030.41;5069019;28;20974;-79
2022/11/01 05:27:46;;;;;;;26.40;22.07;;;11.00;99.90;;;10.58;93.59;97971.44;5057346;28;20476;-79
2022/11/01 05:30:14;;;;;;;27.67;22.00;;;11.00;99.90;;;11.17;92.41;98052.38;5053693;28;20465;-78
2022/11/01 05:32:42;;;;;;;29.17;22.40;;;11.00;99.90;;;11.08;92.39;98048.28;5056378;28;20548;-77
2022/11/01 05:35:10;;;;;;;28.10;21.83;;;11.00;99.90;;;11.05;92.65;98042.25;5060801;28;20459;-79
2022/11/01 05:37:37;;;;;;;26.07;21.53;;;11.00;99.90;;;11.12;92.39;98053.03;5058426;28;20473;-72
2022/11/01 05:40:05;;;;;;;25.20;20.20;;;11.00;99.90;;;11.06;92.92;98056.59;5062347;28;20457;-73
2022/11/01 05:42:32;;;;;;;25.53;22.47;;;11.00;99.90;;;11.04;92.80;98056.81;5069596;28;20455;-74
2022/11/01 05:45:00;;;;;;;25.33;21.40;;;11.00;99.90;;;11.14;92.20;98055.50;5077288;28;20954;-76
2022/11/01 05:47:27;;;;;;;24.67;21.00;;;11.10;99.90;;;11.10;92.46;98052.44;5071862;28;20442;-75
2022/11/01 05:49:55;;;;;;;28.80;22.80;;;11.00;99.90;;;11.25;92.25;98072.94;5068066;28;20860;-76
2022/11/01 05:52:22;;;;;;;23.53;20.07;;;11.10;99.90;;;11.26;93.19;98072.69;5068987;28;20542;-75
2022/11/01 05:54:50;;;;;;;26.37;22.20;;;11.20;99.90;;;10.84;93.28;98021.81;5066575;28;20455;-73
2022/11/01 05:57:17;;;;;;;27.00;20.97;;;11.20;99.90;;;11.04;94.20;98067.63;5065825;28;20482;-75
2022/11/01 05:59:44;;;;;;;24.60;20.93;;;11.10;99.90;;;10.95;93.44;98050.00;5062585;28;20476;-73
2022/11/01 06:02:12;;;;;;;23.77;21.03;;;11.10;99.90;;;11.08;93.50;98072.59;5072752;28;20463;-72
2022/11/01 06:04:40;;;;;;;23.60;21.10;;;11.10;99.90;;;11.04;93.57;98073.06;5077714;28;20445;-72
2022/11/01 06:07:08;;;;;;;31.57;20.90;;;11.00;99.90;;;11.13;93.06;98075.47;5066339;28;21271;-74
2022/11/01 06:09:36;;;;;;;26.67;20.63;;;11.10;99.90;;;11.31;92.80;98089.13;5062605;28;20466;-75
2022/11/01 06:12:03;;;;;;;26.40;21.20;;;11.20;99.90;;;11.34;92.38;98094.09;5058457;28;20477;-74
2022/11/01 06:14:31;;;;;;;25.90;21.20;;;11.20;99.90;;;11.26;92.27;98078.09;5066704;28;20490;-75
2022/11/01 06:16:58;;;;;;;24.80;21.63;;;11.30;99.90;;;11.38;92.52;98101.75;5068543;28;20510;-74
2022/11/01 06:19:25;;;;;;;27.53;21.80;;;11.20;99.90;;;11.05;91.98;98057.63;5084334;28;20460;-75
2022/11/01 06:21:52;;;;;;;23.60;21.03;;;11.20;99.90;;;11.49;92.02;98109.16;5059196;28;20470;-73
2022/11/01 06:24:21;;;;;;;21.97;19.70;;;11.30;99.90;;;11.52;91.00;98127.66;5069582;28;20454;-76
2022/11/01 06:26:48;;;;;;;24.47;19.93;;;11.30;99.90;;;11.17;91.92;98101.88;5068833;28;20448;-72
2022/11/01 06:29:16;;;;;;;22.20;19.90;;;11.30;99.90;;;11.29;92.47;98122.81;5064369;28;20503;-72
2022/11/01 06:31:43;;;;;;;27.17;20.67;;;11.30;99.90;;;11.19;92.93;98120.59;5068470;28;20477;-68
2022/11/01 06:34:11;;;;;;;31.70;21.27;;;11.20;99.90;;;11.44;93.74;98115.22;5052646;28;20802;-68
2022/11/01 06:36:38;;;;;;;23.70;19.80;;;11.40;99.90;;;11.50;93.62;98105.41;5059117;28;20466;-68
2022/11/01 06:39:05;;;;;;;22.43;20.23;;;11.50;99.90;;;11.50;93.93;98113.53;5059934;28;20461;-68
2022/11/01 06:41:34;;;;;;;30.33;20.60;;;11.60;99.90;;;11.47;93.69;98103.97;5060659;28;20507;-69
2022/11/01 06:44:01;;;;;;;25.90;20.33;;;11.60;99.90;;;11.55;92.88;98107.47;5053669;28;20553;-69
2022/11/01 06:46:29;;;;;;;25.67;20.20;;;11.60;99.90;;;11.57;91.24;98111.59;5063812;28;20457;-69
2022/11/01 06:48:56;;;;;;;25.03;20.60;;;11.50;99.90;;;11.67;89.98;98113.00;5055704;28;20464;-69
2022/11/01 06:51:23;;;;;;;25.37;19.17;;;11.60;99.90;;;11.81;89.63;98128.06;5058666;28;21064;-76
2022/11/01 06:53:50;;;;;;;22.90;18.90;;;11.60;99.90;;;11.60;89.57;98127.41;5058927;28;21032;-79
2022/11/01 06:56:17;;;;;;;21.23;19.13;;;11.70;99.90;;;11.59;90.10;98135.75;5057729;28;20953;-80
2022/11/01 06:58:48;;;;;;;20.77;18.17;;;11.60;99.90;;;11.83;89.49;98144.91;5055885;28;20475;-80
2022/11/01 07:01:17;;;;;;;21.37;19.10;;;11.70;99.90;;;11.90;89.26;98145.72;5064931;28;20463;-79
2022/11/01 07:03:45;;;;;;;25.63;18.80;;;11.80;99.90;;;12.03;88.48;98146.66;5060285;28;21107;-79
2022/11/01 07:06:13;;;;;;;20.83;18.60;;;11.80;99.90;;;12.09;87.68;98153.91;5056794;28;20480;-79
2022/11/01 07:08:40;;;;;;;22.70;17.80;;;11.90;99.90;;;12.00;88.09;98155.19;5058716;28;20461;-86
2022/11/01 07:11:07;;;;;;;19.40;17.43;;;12.00;99.90;;;12.10;87.67;98166.41;5064048;28;20479;-75
2022/11/01 07:13:36;;;;;;;20.77;17.87;;;12.00;99.90;;;12.11;87.60;98162.63;5067710;28;20457;-75
2022/11/01 07:16:06;;;;;;;18.20;16.30;;;12.00;99.90;;;12.06;87.81;98169.78;5048709;28;20473;-76
2022/11/01 07:18:33;;;;;;;21.20;18.00;;;12.00;99.70;;;12.09;88.18;98155.78;5061915;28;20458;-75
2022/11/01 07:21:02;;;;;;;23.60;17.57;;;12.10;99.90;;;12.09;87.78;98156.63;5057860;28;20455;-67
2022/11/01 07:23:30;;;;;;;20.43;18.43;;;12.10;99.20;;;12.17;87.67;98171.75;5061636;28;20536;-78
2022/11/01 07:25:58;;;;;;;18.77;16.13;;;12.10;99.10;;;12.29;87.15;98171.84;5059707;28;20463;-76
2022/11/01 07:28:26;;;;;;;21.17;16.73;;;12.20;99.00;;;12.16;87.17;98170.91;5066229;28;20451;-77
2022/11/01 07:30:55;;;;;;;21.80;17.33;;;12.20;98.20;;;12.10;87.19;98150.16;5064338;28;20956;-77
2022/11/01 07:33:24;;;;;;;20.73;17.60;;;12.20;98.00;;;12.18;87.04;98168.00;5066813;28;20458;-77
2022/11/01 07:35:51;;;;;;;19.27;17.30;;;12.20;98.00;;;11.92;87.39;98120.28;5058805;28;20457;-78
2022/11/01 07:38:19;;;;;;;19.57;17.57;;;12.20;98.80;;;12.46;86.93;98188.38;5066712;28;20470;-77
2022/11/01 07:40:48;;;;;;;19.00;16.83;;;12.30;98.90;;;12.78;85.16;98160.28;5066693;28;20456;-78
2022/11/01 07:43:16;;;;;;;18.13;16.13;;;12.50;98.10;;;12.65;85.72;98172.94;5070116;28;20459;-77
2022/11/01 07:45:45;;;;;;;21.70;16.90;;;12.60;96.70;;;12.60;85.29;98173.63;5062269;28;20549;-76
2022/11/01 07:48:14;;;;;;;19.70;15.93;;;12.60;96.40;;;12.77;84.07;98188.47;5060539;28;20474;-76
2022/11/01 07:50:44;;;;;;;18.40;16.40;;;12.70;95.60;;;12.84;84.79;98181.09;5061970;28;20536;-75
2022/11/01 07:53:14;;;;;;;17.80;15.97;;;12.70;96.90;;;12.86;84.44;98189.84;5055830;28;20481;-75
2022/11/01 07:55:42;;;;;;;16.87;14.73;;;12.70;95.80;;;13.01;83.52;98214.69;5054024;28;20461;-74
2022/11/01 07:58:10;;;;;;;16.57;14.97;;;12.80;95.40;;;12.97;83.03;98209.94;5059661;28;20505;-74
2022/11/01 08:00:41;;;;;;;19.67;15.30;;;12.90;94.60;;;12.97;83.34;98224.34;5062643;28;20458;-74
2022/11/01 08:03:11;;;;;;;16.50;14.77;;;12.90;94.80;;;13.06;82.84;98222.16;5062455;28;20470;-74
2022/11/01 08:05:38;;;;;;;15.40;13.90;;;12.90;94.60;;;12.96;83.29;98211.81;5061883;28;20471;-75
2022/11/01 08:08:08;;;;;;;16.53;14.90;;;12.90;94.80;;;13.08;83.29;98213.75;5056467;28;20588;-75
2022/11/01 08:10:37;;;;;;;17.90;16.10;;;12.90;95.00;;;13.17;82.81;98224.06;5057036;28;20514;-75
2022/11/01 08:13:08;;;;;;;15.60;13.37;;;13.00;94.60;;;13.50;82.17;98215.81;5080632;28;20763;-74
2022/11/01 08:15:35;;;;;;;16.67;14.50;;;13.10;95.00;;;13.39;81.79;98215.47;5056413;28;20893;-75
2022/11/01 08:18:03;;;;;;;18.60;13.70;;;13.20;94.00;;;13.72;81.21;98200.63;5065774;28;20537;-74
2022/11/01 08:20:31;;;;;;;13.90;12.50;;;13.40;94.00;;;13.68;80.21;98207.59;5055226;28;20463;-73
2022/11/01 08:22:58;;;;;;;15.00;13.23;;;13.60;92.80;;;13.97;79.52;98198.81;5060628;28;20463;-73
2022/11/01 08:25:27;;;;;;;13.57;12.27;;;13.70;92.70;;;14.15;78.97;98184.31;5061284;28;20561;-73
2022/11/01 08:27:54;;;;;;;14.63;12.90;;;13.90;92.40;;;14.41;77.92;98217.53;5056273;28;20466;-76
2022/11/01 08:30:22;;;;;;;18.10;13.53;;;14.00;91.90;;;14.76;76.90;98229.50;5071626;28;20482;-75
2022/11/01 08:32:49;;;;;;;14.77;12.10;;;14.30;91.60;;;14.99;75.71;98232.19;5065024;28;20486;-75
2022/11/01 08:35:16;;;;;;;22.30;12.10;;;14.50;91.30;;;15.02;76.02;98231.72;5063861;28;20459;-73
2022/11/01 08:37:50;;;;;;;12.27;10.73;;;14.60;91.10;;;15.31;75.31;98244.53;5064712;28;20463;-75
2022/11/01 08:40:19;;;;;;;15.00;11.43;;;14.90;90.80;;;15.24;73.84;98231.09;5061239;28;20460;-75
2022/11/01 08:42:47;;;;;;;11.77;10.70;;;15.00;90.00;;;15.44;73.91;98243.44;5066904;28;20464;-75
2022/11/01 08:45:15;;;;;;;12.20;11.00;;;15.10;90.20;;;15.40;73.36;98242.28;5057096;28;21362;-75
2022/11/01 08:47:43;;;;;;;12.13;10.90;;;15.10;89.50;;;15.49;72.74;98240.00;5054419;28;20452;-75
2022/11/01 08:50:14;;;;;;;12.73;9.70;;;15.20;89.30;;;15.65;72.40;98243.84;5058824;28;20469;-74
2022/11/01 08:52:41;;;;;;;11.27;10.10;;;15.30;89.00;;;15.54;72.37;98227.31;5067443;28;20981;-75
2022/11/01 08:55:10;;;;;;;12.53;10.30;;;15.30;88.70;;;15.97;71.70;98229.75;5062143;28;21748;-73
2022/11/01 08:57:38;;;;;;;12.27;10.20;;;15.50;88.90;;;15.82;71.34;98228.38;5070416;28;20546;-74
2022/11/01 09:00:09;;;;;;;9.50;8.23;;;15.60;87.90;;;15.95;71.00;98238.19;5051574;28;20455;-76
2022/11/01 09:02:36;;;;;;;12.07;9.40;;;15.70;87.80;;;15.66;71.74;98240.88;5071604;28;22244;-76
2022/11/01 09:05:05;;;;;;;10.33;9.23;;;15.50;87.90;;;15.93;71.30;98239.47;5054271;28;20452;-75
2022/11/01 09:07:34;;;;;;;9.10;8.20;;;15.60;87.80;;;15.80;71.81;98230.50;5054625;28;20460;-75
2022/11/01 09:10:01;;;;;;;12.03;8.27;;;15.60;88.00;;;15.39;73.73;98235.16;5057209;28;20573;-74
2022/11/01 09:12:29;;;;;;;9.40;8.50;;;15.40;88.10;;;15.42;73.17;98212.94;5074713;28;20484;-77
2022/11/01 09:14:57;;;;;;;9.43;8.07;;;15.40;88.40;;;15.84;72.25;98223.50;5060939;28;20462;-76
2022/11/01 09:17:25;;;;;;;11.23;7.63;;;15.60;88.40;;;16.08;71.08;98242.47;5066226;28;20490;-74
2022/11/01 09:19:53;;;;;;;9.50;7.90;;;15.90;87.80;;;16.37;69.94;98244.31;5063912;28;20486;-73
2022/11/01 09:22:20;;;;;;;8.27;7.57;;;16.10;87.60;;;16.80;68.25;98240.06;5061201;28;20475;-74
2022/11/01 09:24:47;;;;;;;9.10;5.73;;;16.40;86.70;;;16.77;67.55;98237.84;5064849;28;20457;-75
2022/11/01 09:27:15;;;;;;;7.70;6.00;;;16.50;85.80;;;17.26;66.48;98234.44;5062351;28;20487;-75
2022/11/01 09:29:42;;;;;;;7.10;6.13;;;16.70;85.90;;;17.16;66.86;98241.66;5059354;28;20468;-75
2022/11/01 09:32:09;;;;;;;7.33;5.47;;;16.80;85.60;;;17.46;65.79;98235.75;5060250;28;20555;-74
2022/11/01 09:34:38;;;;;;;9.73;6.50;;;17.00;85.40;;;17.48;64.91;98236.31;5058454;28;20515;-77
2022/11/01 09:37:05;;;;;;;6.20;5.57;;;17.10;84.70;;;17.23;65.09;98229.47;5064715;28;20493;-75
2022/11/01 09:39:32;;;;;;;9.37;5.20;;;17.10;84.20;;;17.34;64.30;98235.06;5063929;28;20458;-75
2022/11/01 09:42:05;;;;;;;5.90;4.70;;;17.20;84.00;;;17.56;63.66;98233.16;5066125;28;20473;-76
2022/11/01 09:44:38;;;;;;;7.37;5.20;;;17.20;83.60;;;17.92;63.17;98238.16;5046272;28;20538;-73
2022/11/01 09:47:13;;;;;;;9.43;5.70;;;17.50;83.50;;;17.74;63.11;98239.34;5055966;28;20468;-73
2022/11/01 09:49:46;;;;;;;6.50;5.10;;;17.60;82.70;;;17.61;63.34;98245.19;5067261;28;20473;-73
2022/11/01 09:52:20;;;;;;;7.77;5.13;;;17.40;82.60;;;17.48;64.06;98257.34;5054925;28;20662;-69
2022/11/01 09:54:47;;;;;;;6.93;5.10;;;17.40;82.80;;;17.30;64.68;98267.53;5053620;28;20529;-69
2022/11/01 09:57:21;;;;;;;6.03;5.23;;;17.20;82.90;;;17.31;64.72;98266.44;5063074;28;20519;-70
2022/11/01 10:00:03;;;;;;;6.30;5.07;;;17.10;83.00;;;17.67;63.18;98260.59;5057815;28;20453;-79
2022/11/01 10:03:16;;;;;;;7.10;5.23;;;17.40;82.90;;;17.75;63.57;98270.22;5056315;28;20461;-67
2022/11/01 10:05:56;;;;;;;5.10;4.50;;;17.40;83.00;;;17.73;63.49;98275.94;5061881;28;20461;-69
2022/11/01 10:08:37;;;;;;;7.10;3.97;;;17.40;82.80;;;17.83;62.99;98287.00;5057634;28;20471;-68
2022/11/01 10:11:48;;;;;;;5.17;4.50;;;17.50;82.60;;;18.03;62.53;98274.66;5054258;28;20465;-69
2022/11/01 10:14:28;;;;;;;7.53;3.97;;;17.70;82.50;;;18.06;62.14;98284.25;5029975;28;20524;-67
2022/11/01 10:17:09;;;;;;;6.37;4.77;;;17.70;82.10;;;18.05;62.30;98272.47;5061793;28;20492;-68
2022/11/01 10:19:38;;;;;;;5.60;4.67;;;17.80;82.10;;;18.31;62.00;98285.56;5055141;28;21038;-69
2022/11/01 10:22:17;;;;;;;4.60;4.17;;;17.90;82.20;;;18.03;62.53;98285.59;5055272;28;20452;-69
2022/11/01 10:24:51;;;;;;;5.83;4.60;;;17.80;82.10;;;17.99;62.77;98284.44;5049461;28;20999;-69
2022/11/01 10:27:25;;;;;;;7.93;4.33;;;17.80;82.10;;;18.21;62.36;98284.41;5054026;28;20459;-69
2022/11/01 10:29:59;;;;;;;4.97;4.10;;;17.80;82.30;;;18.11;62.24;98287.03;5047158;28;20468;-68
2022/11/01 10:32:33;;;;;;;6.20;4.33;;;17.90;82.10;;;17.95;63.45;98284.09;5049434;28;20606;-67